Arak Airport

Airport
ICAO code: 
OIHR
IATA Code: 
AJK
Summary
ICAO Region: 
MID
Territory: 
Location: 
Mobarak Abad, Markazi
Serving: 
Arak
Elevation: 
5453 ft
Coordinates: 
Aerial View: 
34° 8' 1.816" N, 49° 50' 33.948" E
Metar
Observation
OIHR 260800Z 21021KT 5000 DU SCT035 34/01 Q1011
Station
Arak
Date/Time
2022-06-26 08:00:00
Wind direction
210°
Wind speed
21 kts
Lowest cloud amount
scattered clouds
Temperature
34°C
Dew point
1°C
Humidity
12%
QNH
1011 hPa
Weather condition
n/a

Airport serving Arak, Iran.

Climatology

Continental climate (Köppen climate classification Dsa).

Runways

Designator Length Width Surface Rops
8/26 2990 45 ASP No/No
Airport map: 
Aerial View: 

SKYbrary Partners:

Safety knowledge contributed by: